sensor_id;sensor_type;location;lat;lon;timestamp;P1;durP1;ratioP1;P2;durP2;ratioP2
20832;SDS011;56075;51.264;7.150;2023-02-01T00:02:17;18.70;;;6.33;;
20832;SDS011;56075;51.264;7.150;2023-02-01T00:04:49;23.03;;;6.13;;
20832;SDS011;56075;51.264;7.150;2023-02-01T00:07:20;22.87;;;6.17;;
20832;SDS011;56075;51.264;7.150;2023-02-01T00:09:51;13.10;;;5.03;;
20832;SDS011;56075;51.264;7.150;2023-02-01T00:12:23;16.20;;;5.37;;
20832;SDS011;56075;51.264;7.150;2023-02-01T00:14:54;17.40;;;5.47;;
20832;SDS011;56075;51.264;7.150;2023-02-01T00:17:26;21.57;;;4.97;;
20832;SDS011;56075;51.264;7.150;2023-02-01T00:19:57;20.27;;;4.67;;
20832;SDS011;56075;51.264;7.150;2023-02-01T00:22:28;14.53;;;4.37;;
20832;SDS011;56075;51.264;7.150;2023-02-01T00:25:00;18.53;;;4.73;;
20832;SDS011;56075;51.264;7.150;2023-02-01T00:27:31;14.10;;;4.77;;
20832;SDS011;56075;51.264;7.150;2023-02-01T00:30:03;18.20;;;4.47;;
20832;SDS011;56075;51.264;7.150;2023-02-01T00:32:35;17.20;;;4.17;;
20832;SDS011;56075;51.264;7.150;2023-02-01T00:35:06;18.87;;;4.20;;
20832;SDS011;56075;51.264;7.150;2023-02-01T00:37:38;13.73;;;4.77;;
20832;SDS011;56075;51.264;7.150;2023-02-01T00:40:09;19.13;;;3.97;;
20832;SDS011;56075;51.264;7.150;2023-02-01T00:42:41;16.50;;;4.43;;
20832;SDS011;56075;51.264;7.150;2023-02-01T00:45:12;15.90;;;4.83;;
20832;SDS011;56075;51.264;7.150;2023-02-01T00:47:44;21.60;;;5.40;;
20832;SDS011;56075;51.264;7.150;2023-02-01T00:50:15;19.17;;;5.10;;
20832;SDS011;56075;51.264;7.150;2023-02-01T00:52:47;17.73;;;5.67;;
20832;SDS011;56075;51.264;7.150;2023-02-01T00:55:18;24.53;;;6.00;;
20832;SDS011;56075;51.264;7.150;2023-02-01T00:57:49;21.17;;;5.57;;
20832;SDS011;56075;51.264;7.150;2023-02-01T01:00:21;21.20;;;6.20;;
20832;SDS011;56075;51.264;7.150;2023-02-01T01:02:53;24.30;;;6.60;;
20832;SDS011;56075;51.264;7.150;2023-02-01T01:05:25;23.10;;;7.07;;
20832;SDS011;56075;51.264;7.150;2023-02-01T01:07:58;26.77;;;8.07;;
20832;SDS011;56075;51.264;7.150;2023-02-01T01:10:29;30.33;;;9.07;;
20832;SDS011;56075;51.264;7.150;2023-02-01T01:13:01;27.93;;;9.00;;
20832;SDS011;56075;51.264;7.150;2023-02-01T01:15:36;27.93;;;9.30;;
20832;SDS011;56075;51.264;7.150;2023-02-01T01:18:08;24.70;;;8.57;;
20832;SDS011;56075;51.264;7.150;2023-02-01T01:20:40;24.77;;;9.30;;
20832;SDS011;56075;51.264;7.150;2023-02-01T01:23:11;29.50;;;8.53;;
20832;SDS011;56075;51.264;7.150;2023-02-01T01:25:43;23.80;;;8.53;;
20832;SDS011;56075;51.264;7.150;2023-02-01T01:28:14;19.40;;;7.33;;
20832;SDS011;56075;51.264;7.150;2023-02-01T01:30:46;27.67;;;7.87;;
20832;SDS011;56075;51.264;7.150;2023-02-01T01:33:17;27.93;;;7.87;;
20832;SDS011;56075;51.264;7.150;2023-02-01T01:35:49;27.57;;;7.40;;
20832;SDS011;56075;51.264;7.150;2023-02-01T01:38:20;29.57;;;7.60;;
20832;SDS011;56075;51.264;7.150;2023-02-01T01:40:52;22.70;;;6.87;;
20832;SDS011;56075;51.264;7.150;2023-02-01T01:43:23;23.40;;;6.10;;
20832;SDS011;56075;51.264;7.150;2023-02-01T01:45:57;23.33;;;6.30;;
20832;SDS011;56075;51.264;7.150;2023-02-01T01:48:29;24.77;;;6.03;;
20832;SDS011;56075;51.264;7.150;2023-02-01T01:51:02;19.17;;;5.40;;
20832;SDS011;56075;51.264;7.150;2023-02-01T01:53:42;14.47;;;4.80;;
20832;SDS011;56075;51.264;7.150;2023-02-01T01:56:15;22.47;;;4.93;;
20832;SDS011;56075;51.264;7.150;2023-02-01T01:58:47;18.20;;;5.20;;
20832;SDS011;56075;51.264;7.150;2023-02-01T02:01:18;14.33;;;4.13;;
20832;SDS011;56075;51.264;7.150;2023-02-01T02:03:50;14.30;;;4.30;;
20832;SDS011;56075;51.264;7.150;2023-02-01T02:09:32;15.07;;;3.80;;
20832;SDS011;56075;51.264;7.150;2023-02-01T02:12:04;17.83;;;3.63;;
20832;SDS011;56075;51.264;7.150;2023-02-01T02:14:35;19.37;;;3.47;;
20832;SDS011;56075;51.264;7.150;2023-02-01T02:22:26;16.57;;;2.80;;
20832;SDS011;56075;51.264;7.150;2023-02-01T02:30:33;19.77;;;2.70;;
20832;SDS011;56075;51.264;7.150;2023-02-01T02:43:48;16.43;;;2.60;;
20832;SDS011;56075;51.264;7.150;2023-02-01T02:46:41;11.20;;;2.13;;
20832;SDS011;56075;51.264;7.150;2023-02-01T02:49:36;14.60;;;2.60;;
20832;SDS011;56075;51.264;7.150;2023-02-01T02:52:13;13.40;;;2.47;;
20832;SDS011;56075;51.264;7.150;2023-02-01T02:55:06;15.67;;;2.50;;
20832;SDS011;56075;51.264;7.150;2023-02-01T02:57:39;12.03;;;2.20;;
20832;SDS011;56075;51.264;7.150;2023-02-01T03:00:31;12.77;;;2.40;;
20832;SDS011;56075;51.264;7.150;2023-02-01T03:03:22;13.77;;;2.47;;
20832;SDS011;56075;51.264;7.150;2023-02-01T03:06:14;14.20;;;2.37;;
20832;SDS011;56075;51.264;7.150;2023-02-01T03:08:46;12.93;;;2.10;;
20832;SDS011;56075;51.264;7.150;2023-02-01T03:11:18;10.80;;;2.13;;
20832;SDS011;56075;51.264;7.150;2023-02-01T03:13:56;12.87;;;2.30;;
20832;SDS011;56075;51.264;7.150;2023-02-01T03:16:33;12.03;;;1.83;;
20832;SDS011;56075;51.264;7.150;2023-02-01T03:19:27;8.67;;;2.00;;
20832;SDS011;56075;51.264;7.150;2023-02-01T03:22:05;13.17;;;2.30;;
20832;SDS011;56075;51.264;7.150;2023-02-01T03:24:50;12.63;;;2.17;;
20832;SDS011;56075;51.264;7.150;2023-02-01T03:30:13;14.07;;;2.20;;
20832;SDS011;56075;51.264;7.150;2023-02-01T03:32:50;19.17;;;2.33;;
20832;SDS011;56075;51.264;7.150;2023-02-01T03:35:45;14.73;;;2.30;;
20832;SDS011;56075;51.264;7.150;2023-02-01T03:41:47;12.67;;;2.20;;
20832;SDS011;56075;51.264;7.150;2023-02-01T03:44:30;16.53;;;1.90;;
20832;SDS011;56075;51.264;7.150;2023-02-01T03:50:02;14.00;;;2.23;;
20832;SDS011;56075;51.264;7.150;2023-02-01T03:52:39;14.23;;;2.30;;
20832;SDS011;56075;51.264;7.150;2023-02-01T03:55:16;14.87;;;2.57;;
20832;SDS011;56075;51.264;7.150;2023-02-01T03:57:52;17.97;;;2.67;;
20832;SDS011;56075;51.264;7.150;2023-02-01T04:00:29;12.73;;;2.13;;
20832;SDS011;56075;51.264;7.150;2023-02-01T04:03:02;13.43;;;2.50;;
20832;SDS011;56075;51.264;7.150;2023-02-01T04:05:34;12.87;;;1.97;;
20832;SDS011;56075;51.264;7.150;2023-02-01T04:08:09;16.33;;;2.40;;
20832;SDS011;56075;51.264;7.150;2023-02-01T04:10:41;16.00;;;2.13;;
20832;SDS011;56075;51.264;7.150;2023-02-01T04:13:14;17.97;;;2.27;;
20832;SDS011;56075;51.264;7.150;2023-02-01T04:15:46;17.30;;;2.23;;
20832;SDS011;56075;51.264;7.150;2023-02-01T04:18:20;11.43;;;2.57;;
20832;SDS011;56075;51.264;7.150;2023-02-01T04:20:51;15.47;;;2.10;;
20832;SDS011;56075;51.264;7.150;2023-02-01T04:23:22;22.70;;;2.80;;
20832;SDS011;56075;51.264;7.150;2023-02-01T04:25:54;14.40;;;2.40;;
20832;SDS011;56075;51.264;7.150;2023-02-01T04:28:29;15.10;;;2.60;;
20832;SDS011;56075;51.264;7.150;2023-02-01T04:31:01;22.07;;;2.20;;
20832;SDS011;56075;51.264;7.150;2023-02-01T04:33:32;14.93;;;2.43;;
20832;SDS011;56075;51.264;7.150;2023-02-01T04:36:04;23.70;;;3.00;;
20832;SDS011;56075;51.264;7.150;2023-02-01T04:38:35;16.10;;;2.37;;
20832;SDS011;56075;51.264;7.150;2023-02-01T04:41:06;17.87;;;2.63;;
20832;SDS011;56075;51.264;7.150;2023-02-01T04:43:38;24.03;;;2.87;;
20832;SDS011;56075;51.264;7.150;2023-02-01T04:46:09;15.93;;;1.97;;
20832;SDS011;56075;51.264;7.150;2023-02-01T04:48:40;12.30;;;2.00;;
20832;SDS011;56075;51.264;7.150;2023-02-01T04:51:11;12.80;;;2.20;;
20832;SDS011;56075;51.264;7.150;2023-02-01T04:53:43;11.37;;;2.23;;
20832;SDS011;56075;51.264;7.150;2023-02-01T04:56:15;9.37;;;2.07;;
20832;SDS011;56075;51.264;7.150;2023-02-01T04:58:46;15.00;;;2.10;;
20832;SDS011;56075;51.264;7.150;2023-02-01T05:01:17;15.63;;;2.00;;
20832;SDS011;56075;51.264;7.150;2023-02-01T05:03:48;15.90;;;2.17;;
20832;SDS011;56075;51.264;7.150;2023-02-01T05:06:20;18.97;;;2.30;;
20832;SDS011;56075;51.264;7.150;2023-02-01T05:08:51;18.43;;;2.70;;
20832;SDS011;56075;51.264;7.150;2023-02-01T05:11:23;18.50;;;2.67;;
20832;SDS011;56075;51.264;7.150;2023-02-01T05:14:13;17.50;;;2.40;;
20832;SDS011;56075;51.264;7.150;2023-02-01T05:16:44;13.53;;;1.93;;
20832;SDS011;56075;51.264;7.150;2023-02-01T05:19:15;12.50;;;2.03;;
20832;SDS011;56075;51.264;7.150;2023-02-01T05:21:47;11.83;;;2.37;;
20832;SDS011;56075;51.264;7.150;2023-02-01T05:24:18;14.13;;;2.67;;
20832;SDS011;56075;51.264;7.150;2023-02-01T05:26:52;15.53;;;2.00;;
20832;SDS011;56075;51.264;7.150;2023-02-01T05:29:23;16.70;;;2.17;;
20832;SDS011;56075;51.264;7.150;2023-02-01T05:31:54;13.47;;;2.43;;
20832;SDS011;56075;51.264;7.150;2023-02-01T05:34:26;16.13;;;2.13;;
20832;SDS011;56075;51.264;7.150;2023-02-01T05:36:57;20.60;;;2.33;;
20832;SDS011;56075;51.264;7.150;2023-02-01T05:39:28;19.53;;;2.53;;
20832;SDS011;56075;51.264;7.150;2023-02-01T05:42:00;18.63;;;2.90;;
20832;SDS011;56075;51.264;7.150;2023-02-01T05:44:31;16.00;;;2.53;;
20832;SDS011;56075;51.264;7.150;2023-02-01T05:47:02;16.83;;;2.50;;
20832;SDS011;56075;51.264;7.150;2023-02-01T05:49:35;19.33;;;2.40;;
20832;SDS011;56075;51.264;7.150;2023-02-01T05:52:06;17.73;;;2.40;;
20832;SDS011;56075;51.264;7.150;2023-02-01T05:54:37;16.87;;;2.43;;
20832;SDS011;56075;51.264;7.150;2023-02-01T05:57:09;9.83;;;2.07;;
20832;SDS011;56075;51.264;7.150;2023-02-01T05:59:40;13.73;;;2.20;;
20832;SDS011;56075;51.264;7.150;2023-02-01T06:02:11;18.63;;;2.47;;
20832;SDS011;56075;51.264;7.150;2023-02-01T06:04:43;16.73;;;2.53;;
20832;SDS011;56075;51.264;7.150;2023-02-01T06:07:14;19.13;;;2.53;;
20832;SDS011;56075;51.264;7.150;2023-02-01T06:09:45;17.27;;;2.23;;
20832;SDS011;56075;51.264;7.150;2023-02-01T06:12:16;21.63;;;2.50;;
20832;SDS011;56075;51.264;7.150;2023-02-01T06:14:48;14.63;;;2.20;;
20832;SDS011;56075;51.264;7.150;2023-02-01T06:17:19;17.90;;;2.90;;
20832;SDS011;56075;51.264;7.150;2023-02-01T06:19:51;21.40;;;3.03;;
20832;SDS011;56075;51.264;7.150;2023-02-01T06:22:22;15.17;;;2.37;;
20832;SDS011;56075;51.264;7.150;2023-02-01T06:24:54;19.40;;;2.53;;
20832;SDS011;56075;51.264;7.150;2023-02-01T06:27:25;19.43;;;2.50;;
20832;SDS011;56075;51.264;7.150;2023-02-01T06:29:56;20.27;;;2.73;;
20832;SDS011;56075;51.264;7.150;2023-02-01T06:32:28;12.30;;;2.33;;
20832;SDS011;56075;51.264;7.150;2023-02-01T06:34:59;10.67;;;2.27;;
20832;SDS011;56075;51.264;7.150;2023-02-01T06:37:32;22.03;;;2.60;;
20832;SDS011;56075;51.264;7.150;2023-02-01T06:40:03;17.03;;;2.50;;
20832;SDS011;56075;51.264;7.150;2023-02-01T06:42:35;19.40;;;2.33;;
20832;SDS011;56075;51.264;7.150;2023-02-01T06:45:06;22.23;;;2.27;;
20832;SDS011;56075;51.264;7.150;2023-02-01T06:47:38;19.13;;;2.57;;
20832;SDS011;56075;51.264;7.150;2023-02-01T06:50:10;18.80;;;2.70;;
20832;SDS011;56075;51.264;7.150;2023-02-01T06:52:41;15.33;;;2.57;;
20832;SDS011;56075;51.264;7.150;2023-02-01T06:55:13;18.27;;;2.77;;
20832;SDS011;56075;51.264;7.150;2023-02-01T06:57:44;15.00;;;2.43;;
20832;SDS011;56075;51.264;7.150;2023-02-01T07:00:16;17.60;;;2.50;;
20832;SDS011;56075;51.264;7.150;2023-02-01T07:02:47;17.93;;;2.13;;
20832;SDS011;56075;51.264;7.150;2023-02-01T07:05:19;19.43;;;2.40;;
20832;SDS011;56075;51.264;7.150;2023-02-01T07:07:50;24.17;;;2.77;;
20832;SDS011;56075;51.264;7.150;2023-02-01T07:10:22;17.93;;;2.73;;
20832;SDS011;56075;51.264;7.150;2023-02-01T07:12:56;20.67;;;2.60;;
20832;SDS011;56075;51.264;7.150;2023-02-01T07:15:27;16.00;;;2.50;;
20832;SDS011;56075;51.264;7.150;2023-02-01T07:17:59;17.33;;;2.17;;
20832;SDS011;56075;51.264;7.150;2023-02-01T07:20:31;17.80;;;2.53;;
20832;SDS011;56075;51.264;7.150;2023-02-01T07:23:03;19.37;;;2.70;;
20832;SDS011;56075;51.264;7.150;2023-02-01T07:25:34;26.20;;;3.13;;
20832;SDS011;56075;51.264;7.150;2023-02-01T07:28:06;23.00;;;2.53;;
20832;SDS011;56075;51.264;7.150;2023-02-01T07:30:37;12.77;;;2.10;;
20832;SDS011;56075;51.264;7.150;2023-02-01T07:33:08;13.20;;;2.23;;
20832;SDS011;56075;51.264;7.150;2023-02-01T07:35:39;16.03;;;2.70;;
20832;SDS011;56075;51.264;7.150;2023-02-01T07:38:11;13.07;;;2.13;;
20832;SDS011;56075;51.264;7.150;2023-02-01T07:40:42;11.03;;;2.30;;
20832;SDS011;56075;51.264;7.150;2023-02-01T07:43:14;18.20;;;2.87;;
20832;SDS011;56075;51.264;7.150;2023-02-01T07:45:49;18.57;;;2.57;;
20832;SDS011;56075;51.264;7.150;2023-02-01T07:48:21;17.37;;;2.80;;
20832;SDS011;56075;51.264;7.150;2023-02-01T07:51:00;14.87;;;2.50;;
20832;SDS011;56075;51.264;7.150;2023-02-01T07:53:33;17.93;;;2.63;;
20832;SDS011;56075;51.264;7.150;2023-02-01T07:56:15;20.73;;;3.03;;
20832;SDS011;56075;51.264;7.150;2023-02-01T07:58:47;12.60;;;2.50;;
20832;SDS011;56075;51.264;7.150;2023-02-01T08:01:20;19.97;;;3.00;;
20832;SDS011;56075;51.264;7.150;2023-02-01T08:03:58;18.50;;;2.77;;
20832;SDS011;56075;51.264;7.150;2023-02-01T08:06:33;22.57;;;2.90;;
20832;SDS011;56075;51.264;7.150;2023-02-01T08:09:05;20.30;;;2.80;;
20832;SDS011;56075;51.264;7.150;2023-02-01T08:11:38;22.97;;;2.70;;
20832;SDS011;56075;51.264;7.150;2023-02-01T08:14:09;18.60;;;2.50;;
20832;SDS011;56075;51.264;7.150;2023-02-01T08:16:40;13.20;;;2.63;;
20832;SDS011;56075;51.264;7.150;2023-02-01T08:19:11;16.20;;;2.60;;
20832;SDS011;56075;51.264;7.150;2023-02-01T08:21:42;18.00;;;2.70;;
20832;SDS011;56075;51.264;7.150;2023-02-01T08:24:14;15.50;;;2.40;;
20832;SDS011;56075;51.264;7.150;2023-02-01T08:26:45;21.20;;;2.73;;
20832;SDS011;56075;51.264;7.150;2023-02-01T08:29:16;15.80;;;2.93;;
20832;SDS011;56075;51.264;7.150;2023-02-01T08:31:48;18.27;;;2.73;;
20832;SDS011;56075;51.264;7.150;2023-02-01T08:34:19;18.63;;;3.10;;
20832;SDS011;56075;51.264;7.150;2023-02-01T08:36:51;19.60;;;2.93;;
20832;SDS011;56075;51.264;7.150;2023-02-01T08:39:28;19.37;;;2.80;;
20832;SDS011;56075;51.264;7.150;2023-02-01T08:41:59;24.57;;;2.83;;
20832;SDS011;56075;51.264;7.150;2023-02-01T08:44:49;17.10;;;3.00;;
20832;SDS011;56075;51.264;7.150;2023-02-01T08:47:20;17.37;;;2.77;;
20832;SDS011;56075;51.264;7.150;2023-02-01T08:49:51;21.70;;;3.13;;
20832;SDS011;56075;51.264;7.150;2023-02-01T08:52:25;20.97;;;3.07;;
20832;SDS011;56075;51.264;7.150;2023-02-01T08:54:57;20.10;;;2.93;;
20832;SDS011;56075;51.264;7.150;2023-02-01T08:57:28;16.17;;;2.87;;
20832;SDS011;56075;51.264;7.150;2023-02-01T09:00:01;21.37;;;2.70;;
20832;SDS011;56075;51.264;7.150;2023-02-01T09:02:35;19.13;;;3.33;;
20832;SDS011;56075;51.264;7.150;2023-02-01T09:05:06;20.17;;;3.03;;
20832;SDS011;56075;51.264;7.150;2023-02-01T09:07:38;20.77;;;3.40;;
20832;SDS011;56075;51.264;7.150;2023-02-01T09:10:09;19.43;;;2.70;;
20832;SDS011;56075;51.264;7.150;2023-02-01T09:12:41;19.17;;;3.00;;
20832;SDS011;56075;51.264;7.150;2023-02-01T09:15:12;19.57;;;2.90;;
20832;SDS011;56075;51.264;7.150;2023-02-01T09:17:43;19.50;;;2.97;;
20832;SDS011;56075;51.264;7.150;2023-02-01T09:20:14;15.77;;;3.03;;
20832;SDS011;56075;51.264;7.150;2023-02-01T09:22:46;15.80;;;2.37;;
20832;SDS011;56075;51.264;7.150;2023-02-01T09:25:17;21.07;;;2.90;;
20832;SDS011;56075;51.264;7.150;2023-02-01T09:27:49;12.83;;;2.67;;
20832;SDS011;56075;51.264;7.150;2023-02-01T09:30:20;22.37;;;3.30;;
20832;SDS011;56075;51.264;7.150;2023-02-01T09:32:51;19.93;;;3.10;;
20832;SDS011;56075;51.264;7.150;2023-02-01T09:35:23;18.27;;;2.90;;
20832;SDS011;56075;51.264;7.150;2023-02-01T09:37:54;18.33;;;2.90;;
20832;SDS011;56075;51.264;7.150;2023-02-01T09:40:25;18.30;;;2.83;;
20832;SDS011;56075;51.264;7.150;2023-02-01T09:48:34;16.30;;;2.73;;
20832;SDS011;56075;51.264;7.150;2023-02-01T09:51:29;22.80;;;3.13;;
20832;SDS011;56075;51.264;7.150;2023-02-01T09:56:39;16.87;;;2.93;;
20832;SDS011;56075;51.264;7.150;2023-02-01T10:01:47;20.30;;;3.20;;
20832;SDS011;56075;51.264;7.150;2023-02-01T10:04:19;17.93;;;2.97;;
20832;SDS011;56075;51.264;7.150;2023-02-01T10:15:22;19.47;;;3.20;;
20832;SDS011;56075;51.264;7.150;2023-02-01T10:26:26;17.73;;;3.73;;
20832;SDS011;56075;51.264;7.150;2023-02-01T10:29:04;12.37;;;2.83;;
20832;SDS011;56075;51.264;7.150;2023-02-01T10:31:39;26.23;;;4.17;;
20832;SDS011;56075;51.264;7.150;2023-02-01T10:36:54;17.60;;;3.37;;
20832;SDS011;56075;51.264;7.150;2023-02-01T10:39:27;19.47;;;3.57;;
20832;SDS011;56075;51.264;7.150;2023-02-01T10:41:58;20.23;;;3.20;;
20832;SDS011;56075;51.264;7.150;2023-02-01T10:44:30;13.50;;;2.77;;
20832;SDS011;56075;51.264;7.150;2023-02-01T10:47:07;15.93;;;3.53;;
20832;SDS011;56075;51.264;7.150;2023-02-01T10:49:43;21.40;;;3.77;;
20832;SDS011;56075;51.264;7.150;2023-02-01T10:52:31;22.17;;;3.30;;
20832;SDS011;56075;51.264;7.150;2023-02-01T10:55:25;23.73;;;3.47;;
20832;SDS011;56075;51.264;7.150;2023-02-01T10:57:57;18.50;;;3.33;;
20832;SDS011;56075;51.264;7.150;2023-02-01T11:00:44;20.67;;;3.43;;
20832;SDS011;56075;51.264;7.150;2023-02-01T11:03:36;16.67;;;2.90;;
20832;SDS011;56075;51.264;7.150;2023-02-01T11:11:52;19.57;;;3.03;;
20832;SDS011;56075;51.264;7.150;2023-02-01T11:16:57;18.37;;;3.10;;
20832;SDS011;56075;51.264;7.150;2023-02-01T11:19:30;22.10;;;3.17;;
20832;SDS011;56075;51.264;7.150;2023-02-01T11:22:03;21.47;;;3.60;;
20832;SDS011;56075;51.264;7.150;2023-02-01T11:24:35;17.13;;;3.30;;
20832;SDS011;56075;51.264;7.150;2023-02-01T11:27:16;16.47;;;2.67;;
20832;SDS011;56075;51.264;7.150;2023-02-01T11:29:52;15.00;;;3.03;;
20832;SDS011;56075;51.264;7.150;2023-02-01T11:32:24;18.10;;;3.00;;
20832;SDS011;56075;51.264;7.150;2023-02-01T11:34:59;15.97;;;2.70;;
20832;SDS011;56075;51.264;7.150;2023-02-01T11:37:32;14.90;;;2.40;;
20832;SDS011;56075;51.264;7.150;2023-02-01T11:42:57;19.70;;;2.87;;
20832;SDS011;56075;51.264;7.150;2023-02-01T11:45:40;21.40;;;3.07;;
20832;SDS011;56075;51.264;7.150;2023-02-01T11:48:14;11.77;;;2.60;;
20832;SDS011;56075;51.264;7.150;2023-02-01T11:51:31;13.67;;;2.50;;
20832;SDS011;56075;51.264;7.150;2023-02-01T12:02:14;10.97;;;2.20;;
20832;SDS011;56075;51.264;7.150;2023-02-01T12:23:09;12.03;;;2.37;;
20832;SDS011;56075;51.264;7.150;2023-02-01T12:26:13;24.47;;;3.20;;
20832;SDS011;56075;51.264;7.150;2023-02-01T12:32:09;14.70;;;2.53;;
20832;SDS011;56075;51.264;7.150;2023-02-01T12:43:01;12.37;;;2.93;;
20832;SDS011;56075;51.264;7.150;2023-02-01T12:45:45;14.23;;;3.10;;
20832;SDS011;56075;51.264;7.150;2023-02-01T12:51:19;14.67;;;2.87;;
20832;SDS011;56075;51.264;7.150;2023-02-01T12:53:55;14.17;;;2.63;;
20832;SDS011;56075;51.264;7.150;2023-02-01T12:56:37;17.90;;;3.07;;
20832;SDS011;56075;51.264;7.150;2023-02-01T12:59:19;18.00;;;3.17;;
20832;SDS011;56075;51.264;7.150;2023-02-01T13:04:55;12.97;;;2.87;;
20832;SDS011;56075;51.264;7.150;2023-02-01T13:07:35;16.03;;;2.90;;
20832;SDS011;56075;51.264;7.150;2023-02-01T13:10:20;16.47;;;2.70;;
20832;SDS011;56075;51.264;7.150;2023-02-01T13:13:04;18.10;;;2.63;;
20832;SDS011;56075;51.264;7.150;2023-02-01T13:15:41;15.57;;;2.97;;
20832;SDS011;56075;51.264;7.150;2023-02-01T13:18:34;17.47;;;3.17;;
20832;SDS011;56075;51.264;7.150;2023-02-01T13:21:08;15.37;;;2.53;;
20832;SDS011;56075;51.264;7.150;2023-02-01T13:23:46;12.20;;;2.60;;
20832;SDS011;56075;51.264;7.150;2023-02-01T13:26:19;16.60;;;2.63;;
20832;SDS011;56075;51.264;7.150;2023-02-01T13:28:51;15.10;;;2.80;;
20832;SDS011;56075;51.264;7.150;2023-02-01T13:31:40;22.67;;;3.13;;
20832;SDS011;56075;51.264;7.150;2023-02-01T13:42:58;11.40;;;2.33;;
20832;SDS011;56075;51.264;7.150;2023-02-01T13:45:30;21.60;;;3.20;;
20832;SDS011;56075;51.264;7.150;2023-02-01T13:48:03;13.20;;;3.20;;
20832;SDS011;56075;51.264;7.150;2023-02-01T13:50:36;16.17;;;2.87;;
20832;SDS011;56075;51.264;7.150;2023-02-01T13:55:49;11.30;;;2.30;;
20832;SDS011;56075;51.264;7.150;2023-02-01T14:03:57;10.63;;;2.50;;
20832;SDS011;56075;51.264;7.150;2023-02-01T14:11:51;16.93;;;2.27;;
20832;SDS011;56075;51.264;7.150;2023-02-01T14:21:58;10.23;;;2.20;;
20832;SDS011;56075;51.264;7.150;2023-02-01T14:24:32;11.50;;;2.10;;
20832;SDS011;56075;51.264;7.150;2023-02-01T14:29:42;8.97;;;1.80;;
20832;SDS011;56075;51.264;7.150;2023-02-01T14:32:18;12.40;;;2.13;;
20832;SDS011;56075;51.264;7.150;2023-02-01T14:34:53;13.33;;;2.10;;
20832;SDS011;56075;51.264;7.150;2023-02-01T14:37:45;9.30;;;1.50;;
20832;SDS011;56075;51.264;7.150;2023-02-01T14:40:23;15.37;;;2.10;;
20832;SDS011;56075;51.264;7.150;2023-02-01T14:42:55;9.77;;;1.80;;
20832;SDS011;56075;51.264;7.150;2023-02-01T14:50:39;11.23;;;1.47;;
20832;SDS011;56075;51.264;7.150;2023-02-01T14:55:44;14.57;;;2.17;;
20832;SDS011;56075;51.264;7.150;2023-02-01T15:01:22;12.20;;;1.60;;
20832;SDS011;56075;51.264;7.150;2023-02-01T15:09:26;13.33;;;2.93;;
20832;SDS011;56075;51.264;7.150;2023-02-01T15:17:34;11.67;;;1.50;;
20832;SDS011;56075;51.264;7.150;2023-02-01T15:23:00;11.57;;;1.60;;
20832;SDS011;56075;51.264;7.150;2023-02-01T15:25:33;15.07;;;1.50;;
20832;SDS011;56075;51.264;7.150;2023-02-01T15:28:10;8.57;;;1.80;;
20832;SDS011;56075;51.264;7.150;2023-02-01T15:31:30;12.70;;;1.53;;
20832;SDS011;56075;51.264;7.150;2023-02-01T15:33:42;13.57;;;1.87;;
20832;SDS011;56075;51.264;7.150;2023-02-01T15:36:26;12.57;;;1.60;;
20832;SDS011;56075;51.264;7.150;2023-02-01T15:39:19;15.07;;;1.60;;
20832;SDS011;56075;51.264;7.150;2023-02-01T15:41:54;10.83;;;1.67;;
20832;SDS011;56075;51.264;7.150;2023-02-01T15:44:44;14.63;;;1.60;;
20832;SDS011;56075;51.264;7.150;2023-02-01T15:47:17;19.07;;;2.13;;
20832;SDS011;56075;51.264;7.150;2023-02-01T15:49:50;10.80;;;1.90;;
20832;SDS011;56075;51.264;7.150;2023-02-01T15:52:27;14.17;;;2.10;;
20832;SDS011;56075;51.264;7.150;2023-02-01T15:55:20;9.73;;;1.90;;
20832;SDS011;56075;51.264;7.150;2023-02-01T15:58:15;11.00;;;1.80;;
20832;SDS011;56075;51.264;7.150;2023-02-01T16:00:49;10.73;;;1.70;;
20832;SDS011;56075;51.264;7.150;2023-02-01T16:03:43;15.30;;;1.47;;
20832;SDS011;56075;51.264;7.150;2023-02-01T16:08:54;14.20;;;1.87;;
20832;SDS011;56075;51.264;7.150;2023-02-01T16:11:31;13.23;;;1.80;;
20832;SDS011;56075;51.264;7.150;2023-02-01T16:14:10;10.53;;;1.97;;
20832;SDS011;56075;51.264;7.150;2023-02-01T16:16:41;13.17;;;2.20;;
20832;SDS011;56075;51.264;7.150;2023-02-01T16:19:12;12.47;;;1.93;;
20832;SDS011;56075;51.264;7.150;2023-02-01T16:21:44;13.23;;;2.30;;
20832;SDS011;56075;51.264;7.150;2023-02-01T16:24:15;15.43;;;2.20;;
20832;SDS011;56075;51.264;7.150;2023-02-01T16:26:47;19.27;;;2.77;;
20832;SDS011;56075;51.264;7.150;2023-02-01T16:29:18;13.10;;;1.87;;
20832;SDS011;56075;51.264;7.150;2023-02-01T16:31:51;16.47;;;2.43;;
20832;SDS011;56075;51.264;7.150;2023-02-01T16:34:23;13.70;;;2.20;;
20832;SDS011;56075;51.264;7.150;2023-02-01T16:36:54;14.57;;;2.17;;
20832;SDS011;56075;51.264;7.150;2023-02-01T16:39:27;14.40;;;2.07;;
20832;SDS011;56075;51.264;7.150;2023-02-01T16:41:58;14.77;;;1.90;;
20832;SDS011;56075;51.264;7.150;2023-02-01T16:44:30;16.90;;;2.60;;
20832;SDS011;56075;51.264;7.150;2023-02-01T16:47:01;12.03;;;2.37;;
20832;SDS011;56075;51.264;7.150;2023-02-01T16:49:33;15.83;;;2.30;;
20832;SDS011;56075;51.264;7.150;2023-02-01T16:52:04;16.63;;;1.93;;
20832;SDS011;56075;51.264;7.150;2023-02-01T16:54:36;12.43;;;2.27;;
20832;SDS011;56075;51.264;7.150;2023-02-01T16:57:14;15.82;;;2.75;;
20832;SDS011;56075;51.264;7.150;2023-02-01T16:59:46;8.80;;;1.90;;
20832;SDS011;56075;51.264;7.150;2023-02-01T17:02:18;11.87;;;1.93;;
20832;SDS011;56075;51.264;7.150;2023-02-01T17:04:50;14.80;;;2.30;;
20832;SDS011;56075;51.264;7.150;2023-02-01T17:07:21;15.77;;;2.43;;
20832;SDS011;56075;51.264;7.150;2023-02-01T17:09:53;12.70;;;2.23;;
20832;SDS011;56075;51.264;7.150;2023-02-01T17:12:26;12.43;;;1.87;;
20832;SDS011;56075;51.264;7.150;2023-02-01T17:14:59;12.83;;;2.00;;
20832;SDS011;56075;51.264;7.150;2023-02-01T17:17:35;20.93;;;2.30;;
20832;SDS011;56075;51.264;7.150;2023-02-01T17:20:14;15.57;;;2.33;;
20832;SDS011;56075;51.264;7.150;2023-02-01T17:22:49;14.67;;;2.20;;
20832;SDS011;56075;51.264;7.150;2023-02-01T17:25:21;14.53;;;2.17;;
20832;SDS011;56075;51.264;7.150;2023-02-01T17:27:53;20.33;;;2.50;;
20832;SDS011;56075;51.264;7.150;2023-02-01T17:30:24;13.27;;;1.93;;
20832;SDS011;56075;51.264;7.150;2023-02-01T17:32:55;12.50;;;2.30;;
20832;SDS011;56075;51.264;7.150;2023-02-01T17:35:27;13.10;;;2.00;;
20832;SDS011;56075;51.264;7.150;2023-02-01T17:37:59;12.63;;;2.20;;
20832;SDS011;56075;51.264;7.150;2023-02-01T17:40:30;17.57;;;2.13;;
20832;SDS011;56075;51.264;7.150;2023-02-01T17:43:01;14.83;;;2.57;;
20832;SDS011;56075;51.264;7.150;2023-02-01T17:45:36;14.40;;;2.10;;
20832;SDS011;56075;51.264;7.150;2023-02-01T17:48:12;15.70;;;1.93;;
20832;SDS011;56075;51.264;7.150;2023-02-01T17:50:43;13.30;;;2.17;;
20832;SDS011;56075;51.264;7.150;2023-02-01T17:53:15;15.77;;;2.73;;
20832;SDS011;56075;51.264;7.150;2023-02-01T17:55:50;17.10;;;1.80;;
20832;SDS011;56075;51.264;7.150;2023-02-01T17:58:21;15.43;;;2.20;;
20832;SDS011;56075;51.264;7.150;2023-02-01T18:00:53;17.10;;;2.20;;
20832;SDS011;56075;51.264;7.150;2023-02-01T18:03:25;10.13;;;2.07;;
20832;SDS011;56075;51.264;7.150;2023-02-01T18:05:58;10.87;;;2.10;;
20832;SDS011;56075;51.264;7.150;2023-02-01T18:08:31;12.30;;;2.00;;
20832;SDS011;56075;51.264;7.150;2023-02-01T18:11:07;11.57;;;2.03;;
20832;SDS011;56075;51.264;7.150;2023-02-01T18:13:40;19.13;;;2.13;;
20832;SDS011;56075;51.264;7.150;2023-02-01T18:19:12;19.23;;;2.33;;
20832;SDS011;56075;51.264;7.150;2023-02-01T18:21:43;13.73;;;2.13;;